Time;durP1;ratioP1;P1;durP2;ratioP2;P2;SDS_P1;SDS_P2;PMS_P1;PMS_P2;Temp;Humidity;BMP_temperature;BMP_pressure;BME280_temperature;BME280_humidity;BME280_pressure;Samples;Min_cycle;Max_cycle;Signal;HPM_P1;HPM_P2
2022/12/06 00:00:18;;;;;;;7.28;3.53;;;;;;;3.74;100.00;98865.69;4224218;27;20210;-45
2022/12/06 00:02:23;;;;;;;2.90;2.70;;;;;;;3.75;100.00;98856.53;4245229;27;20284;-45
2022/12/06 00:04:28;;;;;;;2.92;2.72;;;;;;;3.77;100.00;98853.66;4243615;27;20587;-46
2022/12/06 00:06:37;;;;;;;3.00;2.67;;;;;;;3.88;100.00;98862.03;4224637;27;20249;-45
2022/12/06 00:08:43;;;;;;;3.72;3.42;;;;;;;3.78;100.00;98861.56;4240043;27;20190;-45
2022/12/06 00:10:47;;;;;;;2.85;2.65;;;;;;;3.74;100.00;98860.28;4228348;27;20646;-46
2022/12/06 00:12:52;;;;;;;3.20;3.00;;;;;;;3.75;100.00;98861.94;4224505;27;20219;-46
2022/12/06 00:14:56;;;;;;;2.88;2.50;;;;;;;3.84;100.00;98858.06;4241267;27;20202;-46
2022/12/06 00:17:02;;;;;;;3.88;3.58;;;;;;;3.76;100.00;98858.25;4227164;27;20228;-46
2022/12/06 00:19:07;;;;;;;2.63;2.42;;;;;;;3.80;100.00;98858.69;4224525;27;20253;-49
2022/12/06 00:21:20;;;;;;;2.75;2.53;;;;;;;3.90;100.00;98846.47;4240870;27;20237;-45
2022/12/06 00:23:26;;;;;;;3.25;2.72;;;;;;;3.71;100.00;98849.88;4223770;27;20214;-47
2022/12/06 00:25:35;;;;;;;3.13;2.53;;;;;;;3.72;100.00;98843.44;4244798;27;20650;-46
2022/12/06 00:27:40;;;;;;;3.47;3.05;;;;;;;3.68;100.00;98844.84;4243515;27;20237;-46
2022/12/06 00:29:45;;;;;;;2.67;2.42;;;;;;;3.61;100.00;98843.97;4225794;27;20236;-45
2022/12/06 00:31:50;;;;;;;3.75;3.38;;;;;;;3.61;100.00;98841.25;4240326;27;20636;-46
2022/12/06 00:33:56;;;;;;;3.55;3.28;;;;;;;3.68;100.00;98849.44;4230943;27;20202;-46
2022/12/06 00:36:15;;;;;;;3.45;3.00;;;;;;;3.63;100.00;98843.78;4220680;27;20230;-46
2022/12/06 00:38:19;;;;;;;3.45;2.85;;;;;;;3.76;100.00;98842.00;4241145;27;20202;-46
2022/12/06 00:40:24;;;;;;;3.30;3.00;;;;;;;3.61;100.00;98843.97;4221392;27;20206;-46
2022/12/06 00:42:28;;;;;;;3.58;3.30;;;;;;;3.68;100.00;98839.44;4241037;27;20242;-46
2022/12/06 00:44:33;;;;;;;2.88;2.60;;;;;;;3.70;100.00;98839.25;4220054;27;20209;-46
2022/12/06 00:46:39;;;;;;;3.20;2.90;;;;;;;3.69;100.00;98840.28;4240449;27;20233;-46
2022/12/06 00:48:44;;;;;;;2.35;2.03;;;;;;;3.77;100.00;98830.13;4227640;27;20255;-47
2022/12/06 00:50:49;;;;;;;2.72;2.40;;;;;;;3.73;100.00;98834.28;4210109;28;20211;-46
2022/12/06 00:52:54;;;;;;;4.03;2.88;;;;;;;3.71;100.00;98833.63;4241266;27;20229;-46
2022/12/06 00:54:59;;;;;;;2.85;2.42;;;;;;;3.69;100.00;98832.16;4223026;27;20206;-47
2022/12/06 00:57:03;;;;;;;2.60;2.40;;;;;;;3.75;100.00;98821.38;4239206;27;20252;-46
2022/12/06 00:59:09;;;;;;;3.97;2.63;;;;;;;3.73;100.00;98831.56;4227972;27;20221;-46
2022/12/06 01:01:16;;;;;;;4.05;3.45;;;;;;;3.62;100.00;98823.19;4242536;27;20200;-46
2022/12/06 01:03:22;;;;;;;3.40;2.83;;;;;;;3.63;100.00;98825.69;4219916;27;20256;-46
2022/12/06 01:05:28;;;;;;;2.95;2.65;;;;;;;3.64;100.00;98819.25;4241247;27;20711;-46
2022/12/06 01:07:33;;;;;;;2.92;2.72;;;;;;;3.74;100.00;98821.59;4239960;27;20198;-46
2022/12/06 01:09:37;;;;;;;2.55;2.35;;;;;;;3.60;100.00;98817.13;4243639;27;20208;-46
2022/12/06 01:11:42;;;;;;;2.95;2.75;;;;;;;3.60;100.00;98820.66;4238378;27;20263;-47
2022/12/06 01:13:47;;;;;;;2.13;2.03;;;;;;;3.66;100.00;98825.28;4227054;27;20274;-46
2022/12/06 01:15:53;;;;;;;1.98;1.88;;;;;;;3.65;100.00;98831.72;4219226;27;20304;-46
2022/12/06 01:17:57;;;;;;;2.75;2.53;;;;;;;3.65;100.00;98823.59;4239570;27;20212;-46
2022/12/06 01:20:01;;;;;;;3.90;2.30;;;;;;;3.56;100.00;98818.56;4227478;27;20313;-46
2022/12/06 01:22:06;;;;;;;2.28;2.08;;;;;;;3.62;100.00;98823.19;4238377;27;20257;-46
2022/12/06 01:24:10;;;;;;;2.22;2.03;;;;;;;3.62;100.00;98821.31;4224901;27;20246;-46
2022/12/06 01:26:27;;;;;;;3.33;3.03;;;;;;;3.62;100.00;98824.03;4241323;27;20221;-46
2022/12/06 01:28:34;;;;;;;3.78;2.45;;;;;;;3.66;100.00;98827.97;4222625;27;20206;-46
2022/12/06 01:30:39;;;;;;;3.08;2.88;;;;;;;3.55;100.00;98828.53;4241790;27;20254;-46
2022/12/06 01:32:44;;;;;;;2.85;2.42;;;;;;;3.51;100.00;98827.28;4241176;27;20209;-47
2022/12/06 01:34:51;;;;;;;2.08;1.88;;;;;;;3.52;100.00;98825.38;4239074;27;20554;-46
2022/12/06 01:36:56;;;;;;;2.28;1.75;;;;;;;3.52;100.00;98823.53;4238745;27;20251;-46
2022/12/06 01:39:05;;;;;;;3.10;2.20;;;;;;;3.53;100.00;98822.50;4225285;27;20328;-46
2022/12/06 01:41:10;;;;;;;2.53;2.15;;;;;;;3.39;100.00;98828.84;4239380;27;20209;-47
2022/12/06 01:43:35;;;;;;;2.92;2.65;;;;;;;3.46;100.00;98827.03;4240261;27;20201;-46
2022/12/06 01:45:39;;;;;;;3.55;2.17;;;;;;;3.33;100.00;98821.50;4225057;28;20226;-46
2022/12/06 01:47:44;;;;;;;1.95;1.85;;;;;;;3.34;100.00;98820.47;4224523;28;20224;-45
2022/12/06 01:49:56;;;;;;;2.53;2.35;;;;;;;3.34;100.00;98815.06;4236975;27;20204;-46
2022/12/06 01:52:07;;;;;;;2.83;2.45;;;;;;;3.23;100.00;98812.94;4242447;27;20228;-46
2022/12/06 01:54:13;;;;;;;2.58;2.38;;;;;;;3.29;100.00;98809.44;4222527;27;20198;-47
2022/12/06 01:56:18;;;;;;;3.15;2.20;;;;;;;3.31;100.00;98818.19;4241182;27;20255;-46
2022/12/06 01:58:26;;;;;;;1.73;1.65;;;;;;;3.22;100.00;98815.81;4222119;28;20233;-46
2022/12/06 02:00:32;;;;;;;2.08;1.98;;;;;;;3.23;100.00;98812.94;4220389;27;20801;-46
2022/12/06 02:02:37;;;;;;;2.85;2.65;;;;;;;3.16;100.00;98801.22;4209379;28;20210;-45
2022/12/06 02:04:41;;;;;;;2.88;2.60;;;;;;;3.13;100.00;98807.00;4237369;27;20205;-45
2022/12/06 02:06:45;;;;;;;2.90;2.42;;;;;;;3.15;100.00;98804.94;4223313;28;20707;-46
2022/12/06 02:08:51;;;;;;;2.75;2.55;;;;;;;3.24;100.00;98803.78;4221411;27;20568;-46
2022/12/06 02:10:56;;;;;;;3.53;3.08;;;;;;;3.20;100.00;98807.91;4242305;27;20946;-46
2022/12/06 02:13:00;;;;;;;3.28;3.00;;;;;;;3.28;100.00;98810.44;4240499;27;20206;-46
2022/12/06 02:15:05;;;;;;;2.65;2.33;;;;;;;3.33;100.00;98807.19;4225485;28;20764;-46
2022/12/06 02:17:39;;;;;;;2.97;2.78;;;;;;;3.34;100.00;98801.56;4242782;27;20250;-45
2022/12/06 02:20:07;;;;;;;3.42;2.30;;;;;;;3.45;100.00;98801.00;4223634;28;20248;-46
2022/12/06 02:22:18;;;;;;;2.35;2.03;;;;;;;3.35;100.00;98811.31;4242419;27;20214;-46
2022/12/06 02:24:48;;;;;;;2.20;2.10;;;;;;;3.36;100.00;98807.63;4241283;27;20201;-46
2022/12/06 02:27:18;;;;;;;2.55;2.38;;;;;;;3.27;100.00;98808.78;4241684;27;20250;-46
2022/12/06 02:29:28;;;;;;;1.70;1.60;;;;;;;3.31;100.00;98815.47;4208530;28;21210;-47
2022/12/06 02:31:50;;;;;;;1.73;1.63;;;;;;;3.31;100.00;98815.47;4241196;27;20656;-46
2022/12/06 02:34:12;;;;;;;2.47;2.28;;;;;;;3.27;100.00;98806.06;4241350;27;20278;-46
2022/12/06 02:36:52;;;;;;;2.40;2.20;;;;;;;3.26;100.00;98817.09;4226542;27;20630;-45
2022/12/06 02:39:02;;;;;;;3.17;2.35;;;;;;;3.35;100.00;98811.31;4225906;28;20206;-45
2022/12/06 02:41:33;;;;;;;2.53;2.33;;;;;;;3.27;100.00;98814.19;4243116;27;20635;-44
2022/12/06 02:43:47;;;;;;;2.13;1.92;;;;;;;3.27;100.00;98808.78;4243017;27;20197;-44
2022/12/06 02:45:56;;;;;;;4.30;2.33;;;;;;;3.27;100.00;98808.78;4224799;27;20319;-44
2022/12/06 02:48:02;;;;;;;2.63;2.42;;;;;;;3.26;100.00;98799.00;4248431;27;20246;-45
2022/12/06 02:50:10;;;;;;;2.28;2.10;;;;;;;3.26;100.00;98801.72;4246595;27;20750;-45
2022/12/06 02:52:16;;;;;;;2.92;2.42;;;;;;;3.30;100.00;98805.69;4215087;28;20210;-45
2022/12/06 02:54:21;;;;;;;2.50;2.30;;;;;;;3.37;100.00;98809.28;4244256;27;20229;-45
2022/12/06 02:56:26;;;;;;;2.30;2.10;;;;;;;3.37;100.00;98806.59;4208787;28;20321;-45
2022/12/06 02:58:36;;;;;;;2.58;2.38;;;;;;;3.41;100.00;98804.31;4228603;27;20626;-54
2022/12/06 03:00:48;;;;;;;2.17;2.03;;;;;;;3.42;100.00;98806.84;4243865;27;20760;-45
2022/12/06 03:03:03;;;;;;;2.45;2.25;;;;;;;3.41;100.00;98812.44;4224484;27;20804;-45
2022/12/06 03:05:18;;;;;;;3.83;2.47;;;;;;;3.41;100.00;98802.44;4242430;27;20201;-45
2022/12/06 03:07:46;;;;;;;2.17;1.98;;;;;;;3.32;100.00;98805.47;4225314;27;20320;-44
2022/12/06 03:09:57;;;;;;;2.38;2.17;;;;;;;3.39;100.00;98801.81;4223105;27;20194;-45
2022/12/06 03:12:24;;;;;;;3.03;2.40;;;;;;;3.43;100.00;98799.53;4227698;27;20571;-45
2022/12/06 03:14:40;;;;;;;2.00;1.90;;;;;;;3.42;100.00;98804.13;4230793;27;20284;-44
2022/12/06 03:17:04;;;;;;;2.13;1.98;;;;;;;3.37;100.00;98808.44;4211464;27;20741;-44
2022/12/06 03:19:18;;;;;;;2.28;2.10;;;;;;;3.34;100.00;98809.66;4245336;27;20672;-45
2022/12/06 03:21:28;;;;;;;2.63;2.42;;;;;;;3.39;100.00;98807.22;4227541;27;20214;-46
2022/12/06 03:23:39;;;;;;;2.45;2.25;;;;;;;3.29;100.00;98801.31;4230507;27;20595;-45
2022/12/06 03:25:45;;;;;;;1.90;1.80;;;;;;;3.21;100.00;98804.16;4242609;27;20256;-45
2022/12/06 03:27:49;;;;;;;2.45;2.28;;;;;;;3.27;100.00;98797.97;4213791;27;20205;-45
2022/12/06 03:29:56;;;;;;;2.28;2.10;;;;;;;3.27;100.00;98795.25;4230036;27;20708;-45
2022/12/06 03:32:04;;;;;;;3.10;2.85;;;;;;;3.23;100.00;98790.44;4213215;28;20239;-45
2022/12/06 03:34:17;;;;;;;3.13;2.92;;;;;;;3.29;100.00;98795.06;4225834;27;20219;-45
2022/12/06 03:36:22;;;;;;;2.42;1.77;;;;;;;3.33;100.00;98797.19;4242716;27;20235;-44
2022/12/06 03:38:52;;;;;;;3.40;3.10;;;;;;;3.34;100.00;98785.31;4223470;27;20207;-45
2022/12/06 03:41:02;;;;;;;3.55;3.22;;;;;;;3.27;100.00;98792.56;4218795;27;20297;-45
2022/12/06 03:43:09;;;;;;;3.10;2.92;;;;;;;3.26;100.00;98790.88;4242189;27;20208;-45
2022/12/06 03:45:13;;;;;;;2.90;2.40;;;;;;;3.18;100.00;98788.34;4241669;27;20672;-45
2022/12/06 03:47:26;;;;;;;3.38;3.10;;;;;;;3.18;100.00;98782.94;4223110;27;20225;-46
2022/12/06 03:49:38;;;;;;;3.80;3.50;;;;;;;3.22;100.00;98784.22;4243475;27;20207;-45
2022/12/06 03:51:45;;;;;;;3.35;3.05;;;;;;;3.07;100.00;98780.75;4243565;27;20193;-44
2022/12/06 03:53:52;;;;;;;3.15;2.85;;;;;;;3.09;100.00;98781.44;4222250;27;20217;-44
2022/12/06 03:55:57;;;;;;;2.70;2.50;;;;;;;3.15;100.00;98772.50;4223952;27;20280;-44
2022/12/06 03:58:01;;;;;;;2.28;2.08;;;;;;;3.15;100.00;98777.09;4223108;27;20598;-45
2022/12/06 04:00:06;;;;;;;3.25;2.95;;;;;;;3.07;100.00;98766.44;4223964;27;20299;-44
2022/12/06 04:02:10;;;;;;;2.78;2.50;;;;;;;2.97;100.00;98774.88;4240537;27;20721;-45
2022/12/06 04:04:14;;;;;;;2.63;2.42;;;;;;;3.07;100.00;98775.34;4222490;27;20249;-45
2022/12/06 04:06:19;;;;;;;3.45;2.83;;;;;;;3.12;100.00;98772.91;4242814;27;20233;-45
2022/12/06 04:08:24;;;;;;;2.92;2.50;;;;;;;3.18;100.00;98776.69;4241796;27;20284;-45
2022/12/06 04:10:29;;;;;;;3.17;2.97;;;;;;;3.16;100.00;98774.19;4223593;27;20610;-45
2022/12/06 04:14:59;;;;;;;2.97;2.28;;;;;;;3.10;100.00;98782.25;4241836;27;20205;-45
2022/12/06 04:19:27;;;;;;;3.20;2.90;;;;;;;3.11;100.00;98782.06;4245129;27;20209;-45
2022/12/06 04:23:41;;;;;;;2.72;2.53;;;;;;;3.19;100.00;98773.78;4240439;27;20205;-45
2022/12/06 04:25:47;;;;;;;2.95;2.75;;;;;;;3.13;100.00;98776.47;4224041;27;20675;-45
2022/12/06 04:39:45;;;;;;;3.63;3.33;;;;;;;3.24;100.00;98782.16;4240278;27;20221;-46
2022/12/06 04:44:12;;;;;;;3.17;2.88;;;;;;;3.32;100.00;98781.13;4240201;27;20192;-45
2022/12/06 04:46:18;;;;;;;3.28;2.70;;;;;;;3.34;100.00;98777.22;4212125;27;20226;-46
2022/12/06 04:48:22;;;;;;;2.72;2.30;;;;;;;3.20;100.00;98775.44;4241539;27;20206;-45
2022/12/06 04:50:28;;;;;;;3.03;2.70;;;;;;;3.19;100.00;98773.78;4240992;27;20753;-46
2022/12/06 04:52:36;;;;;;;3.38;2.70;;;;;;;3.26;100.00;98769.25;4234684;27;20209;-45
2022/12/06 04:54:50;;;;;;;2.90;2.67;;;;;;;3.16;100.00;98768.78;4235091;27;20201;-46
2022/12/06 04:56:56;;;;;;;3.05;2.63;;;;;;;3.28;100.00;98774.47;4238942;27;20225;-46
2022/12/06 04:59:01;;;;;;;3.95;3.65;;;;;;;3.17;100.00;98770.44;4229983;27;20237;-46
2022/12/06 05:01:06;;;;;;;3.53;3.22;;;;;;;3.16;100.00;98768.78;4244743;27;20226;-46
2022/12/06 05:03:14;;;;;;;3.58;3.28;;;;;;;3.22;100.00;98770.72;4223670;27;20229;-47
2022/12/06 05:05:19;;;;;;;3.00;2.70;;;;;;;3.23;100.00;98766.97;4240024;27;20201;-46
2022/12/06 05:07:24;;;;;;;3.20;2.90;;;;;;;3.26;100.00;98763.84;4242164;27;20202;-46
2022/12/06 05:09:28;;;;;;;5.85;3.13;;;;;;;3.28;100.00;98767.19;4239806;27;20296;-45
2022/12/06 05:11:33;;;;;;;2.92;2.72;;;;;;;3.21;100.00;98760.91;4242487;27;20197;-45
2022/12/06 05:13:39;;;;;;;3.08;2.53;;;;;;;3.25;100.00;98762.19;4208199;27;20203;-45
2022/12/06 05:15:57;;;;;;;4.32;2.22;;;;;;;3.24;100.00;98755.13;4237994;27;20248;-46
2022/12/06 05:18:01;;;;;;;3.05;2.80;;;;;;;3.24;100.00;98748.84;4238652;27;20293;-46
2022/12/06 05:20:07;;;;;;;3.42;3.03;;;;;;;3.23;100.00;98753.44;4241602;27;20223;-46
2022/12/06 05:22:11;;;;;;;4.22;3.28;;;;;;;3.31;100.00;98752.44;4238372;27;20214;-47
2022/12/06 05:24:16;;;;;;;4.97;3.47;;;;;;;3.31;100.00;98761.41;4225107;27;20248;-46
2022/12/06 05:26:26;;;;;;;3.25;2.95;;;;;;;3.28;100.00;98764.47;4223480;27;20225;-46
2022/12/06 05:28:33;;;;;;;3.45;2.97;;;;;;;3.33;100.00;98753.91;4233553;27;20246;-46
2022/12/06 05:30:37;;;;;;;3.05;2.85;;;;;;;3.23;100.00;98755.31;4220520;27;20628;-46
2022/12/06 05:32:41;;;;;;;6.00;4.65;;;;;;;3.35;100.00;98757.25;4219515;27;20207;-46
2022/12/06 05:34:46;;;;;;;6.57;2.80;;;;;;;3.27;100.00;98754.69;4221157;27;20240;-46
2022/12/06 05:36:51;;;;;;;2.80;2.58;;;;;;;3.25;100.00;98755.94;4221260;27;20229;-45
2022/12/06 05:38:56;;;;;;;2.35;2.15;;;;;;;3.25;100.00;98748.66;4221509;27;20210;-46
2022/12/06 05:41:01;;;;;;;2.75;2.55;;;;;;;3.25;100.00;98745.97;4237025;27;20702;-45
2022/12/06 05:43:08;;;;;;;3.42;3.13;;;;;;;3.27;100.00;98748.47;4224495;27;20205;-46
2022/12/06 05:45:12;;;;;;;2.42;2.22;;;;;;;3.22;100.00;98749.06;4237503;27;20378;-45
2022/12/06 05:47:16;;;;;;;3.28;2.97;;;;;;;3.17;100.00;98758.78;4235103;27;20198;-45
2022/12/06 05:49:20;;;;;;;4.00;3.70;;;;;;;3.19;100.00;98762.97;4242612;27;20205;-45
2022/12/06 05:51:24;;;;;;;2.92;2.72;;;;;;;3.09;100.00;98767.91;4219314;27;20724;-45
2022/12/06 05:53:29;;;;;;;3.38;3.08;;;;;;;3.21;100.00;98760.91;4239020;27;20209;-45
2022/12/06 05:55:33;;;;;;;4.50;4.20;;;;;;;3.12;100.00;98772.91;4222977;28;20333;-46
2022/12/06 05:57:37;;;;;;;4.07;3.80;;;;;;;3.09;100.00;98762.50;4222085;28;20239;-46
2022/12/06 05:59:48;;;;;;;4.20;3.90;;;;;;;3.11;100.00;98765.84;4224607;27;20201;-46
2022/12/06 06:01:53;;;;;;;4.15;3.85;;;;;;;3.08;100.00;98765.38;4220704;28;20967;-45
2022/12/06 06:04:00;;;;;;;4.13;3.83;;;;;;;3.13;100.00;98773.75;4223871;28;20205;-46
2022/12/06 06:06:05;;;;;;;4.22;3.83;;;;;;;3.26;100.00;98781.97;4215197;28;20635;-45
2022/12/06 06:08:09;;;;;;;4.13;3.83;;;;;;;3.24;100.00;98784.84;4232523;27;20243;-46
2022/12/06 06:10:14;;;;;;;3.80;3.50;;;;;;;3.13;100.00;98785.38;4236535;27;20240;-45
2022/12/06 06:12:20;;;;;;;4.75;4.35;;;;;;;3.24;100.00;98782.16;4221508;28;20593;-45
2022/12/06 06:14:25;;;;;;;7.15;3.85;;;;;;;3.12;100.00;98780.16;4236882;27;20229;-46
2022/12/06 06:16:32;;;;;;;3.53;3.15;;;;;;;3.14;100.00;98784.34;4223254;27;20260;-46
2022/12/06 06:18:40;;;;;;;4.35;3.95;;;;;;;3.12;100.00;98783.72;4227649;27;20217;-46
2022/12/06 06:20:53;;;;;;;3.63;3.33;;;;;;;3.12;100.00;98782.88;4239935;27;20224;-46
2022/12/06 06:22:58;;;;;;;4.60;3.47;;;;;;;3.13;100.00;98782.69;4241254;27;20274;-46
2022/12/06 06:25:06;;;;;;;3.47;3.17;;;;;;;3.18;100.00;98788.34;4222432;27;20202;-47
2022/12/06 06:27:12;;;;;;;4.20;3.80;;;;;;;3.13;100.00;98790.78;4224478;27;20296;-46
2022/12/06 06:29:18;;;;;;;4.65;4.15;;;;;;;3.03;100.00;98787.59;4243344;27;20237;-45
2022/12/06 06:31:25;;;;;;;5.13;3.28;;;;;;;3.10;100.00;98780.38;4243480;27;20202;-46
2022/12/06 06:33:32;;;;;;;4.78;2.70;;;;;;;3.18;100.00;98782.09;4245188;27;20704;-46
2022/12/06 06:35:39;;;;;;;3.75;3.38;;;;;;;3.09;100.00;98784.13;4225624;27;20720;-46
2022/12/06 06:37:47;;;;;;;4.15;3.85;;;;;;;3.04;100.00;98781.16;4228462;27;20205;-46
2022/12/06 06:39:52;;;;;;;4.07;3.58;;;;;;;3.17;100.00;98788.53;4210356;28;20198;-46
2022/12/06 06:41:58;;;;;;;3.80;3.50;;;;;;;3.14;100.00;98787.06;4242481;27;20228;-46
2022/12/06 06:44:02;;;;;;;3.90;3.60;;;;;;;3.12;100.00;98786.41;4240759;27;20284;-46
2022/12/06 06:46:07;;;;;;;4.22;3.90;;;;;;;3.12;100.00;98775.59;4241474;27;20229;-47
2022/12/06 06:48:13;;;;;;;4.90;4.28;;;;;;;3.08;100.00;98782.44;4241339;27;20549;-45
2022/12/06 06:50:18;;;;;;;5.03;4.60;;;;;;;3.16;100.00;98784.16;4206025;27;20199;-46
2022/12/06 06:52:23;;;;;;;4.40;4.00;;;;;;;3.25;100.00;98791.94;4242504;27;20206;-46
2022/12/06 06:54:29;;;;;;;4.95;4.22;;;;;;;3.23;100.00;98785.88;4226144;27;20621;-47
2022/12/06 06:56:33;;;;;;;3.45;3.15;;;;;;;3.19;100.00;98790.00;4239933;27;20264;-45
2022/12/06 06:58:40;;;;;;;4.85;4.45;;;;;;;3.14;100.00;98792.47;4225137;27;20778;-47
2022/12/06 07:00:46;;;;;;;4.60;4.18;;;;;;;3.09;100.00;98789.53;4225974;27;20229;-45
2022/12/06 07:02:51;;;;;;;5.35;4.93;;;;;;;3.09;100.00;98789.53;4209134;27;20854;-46
2022/12/06 07:04:56;;;;;;;6.30;4.35;;;;;;;3.09;100.00;98784.13;4229389;27;20228;-45
2022/12/06 07:07:01;;;;;;;6.25;4.38;;;;;;;3.13;100.00;98788.09;4222584;27;20226;-46
2022/12/06 07:09:06;;;;;;;4.15;3.85;;;;;;;3.20;100.00;98785.44;4243094;27;20254;-46
2022/12/06 07:11:11;;;;;;;3.90;3.60;;;;;;;3.20;100.00;98786.25;4238327;27;20200;-46
2022/12/06 07:13:17;;;;;;;6.10;5.60;;;;;;;3.13;100.00;98790.78;4237107;27;20224;-47
2022/12/06 07:15:22;;;;;;;5.38;4.10;;;;;;;3.20;100.00;98791.69;4238834;27;20193;-46
2022/12/06 07:17:28;;;;;;;4.18;3.88;;;;;;;3.18;100.00;98793.75;4222677;27;20209;-46
2022/12/06 07:19:31;;;;;;;4.45;3.83;;;;;;;3.14;100.00;98792.47;4225184;27;20231;-46
2022/12/06 07:21:32;;;;;;;4.85;4.45;;;;;;;3.11;100.00;98797.41;4226321;27;20229;-46
2022/12/06 07:23:35;;;;;;;4.20;3.80;;;;;;;3.14;100.00;98797.88;4208286;28;20249;-46
2022/12/06 07:25:37;;;;;;;4.15;3.78;;;;;;;3.25;100.00;98800.03;4236457;27;20250;-46
2022/12/06 07:27:39;;;;;;;9.85;4.75;;;;;;;3.19;100.00;98798.13;4225330;27;20281;-46
2022/12/06 07:29:41;;;;;;;4.22;3.92;;;;;;;3.17;100.00;98792.09;4225144;27;20624;-44
2022/12/06 07:31:43;;;;;;;4.60;3.60;;;;;;;3.22;100.00;98795.03;4211942;28;20206;-45
2022/12/06 07:33:45;;;;;;;5.55;5.10;;;;;;;3.23;100.00;98788.59;4242571;27;20203;-46
2022/12/06 07:35:52;;;;;;;6.30;5.57;;;;;;;3.15;100.00;98788.72;4229755;27;20264;-46
2022/12/06 07:38:26;;;;;;;4.55;4.15;;;;;;;3.09;100.00;98789.53;4241055;27;20265;-47
2022/12/06 07:40:35;;;;;;;4.30;3.90;;;;;;;3.13;100.00;98790.78;4239356;27;20695;-47
2022/12/06 07:45:18;;;;;;;4.45;4.00;;;;;;;3.03;100.00;98784.91;4241984;27;20581;-46
2022/12/06 07:47:20;;;;;;;6.30;5.70;;;;;;;3.07;100.00;98783.47;4242315;27;20228;-46
2022/12/06 07:49:21;;;;;;;10.85;6.10;;;;;;;2.98;100.00;98781.94;4240673;27;20738;-46
2022/12/06 07:51:23;;;;;;;6.78;5.88;;;;;;;2.97;100.00;98782.97;4202665;28;20208;-46
2022/12/06 07:53:33;;;;;;;5.78;5.18;;;;;;;2.97;100.00;98779.44;4229106;27;20750;-46
2022/12/06 07:55:38;;;;;;;5.35;4.95;;;;;;;2.94;100.00;98779.84;4212068;28;20748;-47
2022/12/06 07:57:40;;;;;;;5.28;4.78;;;;;;;2.95;100.00;98776.91;4225113;27;20209;-46
2022/12/06 07:59:44;;;;;;;5.18;4.68;;;;;;;2.95;100.00;98782.31;4242673;27;20201;-46
2022/12/06 08:01:46;;;;;;;5.22;4.82;;;;;;;2.96;100.00;98781.31;4222647;27;20835;-46
2022/12/06 08:03:54;;;;;;;4.22;3.92;;;;;;;3.05;100.00;98782.84;4237908;27;20228;-45
2022/12/06 08:05:55;;;;;;;5.55;5.15;;;;;;;3.10;100.00;98785.78;4224919;27;20217;-46
2022/12/06 08:07:57;;;;;;;5.43;4.93;;;;;;;3.12;100.00;98786.41;4223712;27;20756;-46
2022/12/06 08:09:59;;;;;;;5.60;5.15;;;;;;;3.13;100.00;98785.38;4241973;27;20205;-45
2022/12/06 08:12:02;;;;;;;5.10;4.30;;;;;;;3.24;100.00;98786.72;4225844;27;20194;-45
2022/12/06 08:14:04;;;;;;;5.10;4.55;;;;;;;3.24;100.00;98787.56;4244267;27;20211;-45
2022/12/06 08:16:08;;;;;;;6.95;5.80;;;;;;;3.22;100.00;98778.81;4222148;27;20683;-45
2022/12/06 08:18:10;;;;;;;6.88;5.75;;;;;;;3.29;100.00;98777.00;4225307;27;20297;-45
2022/12/06 08:20:11;;;;;;;6.30;5.70;;;;;;;3.31;100.00;98780.31;4223526;27;20627;-44
2022/12/06 08:22:13;;;;;;;6.88;6.30;;;;;;;3.29;100.00;98773.44;4225643;27;20716;-45
2022/12/06 08:24:15;;;;;;;5.38;4.97;;;;;;;3.33;100.00;98777.44;4227313;27;20244;-45
2022/12/06 08:26:17;;;;;;;6.63;6.03;;;;;;;3.43;100.00;98786.84;4239047;27;20301;-45
2022/12/06 08:28:34;;;;;;;6.15;5.57;;;;;;;3.39;100.00;98779.31;4224561;27;20214;-44
2022/12/06 08:30:44;;;;;;;6.05;5.55;;;;;;;3.36;100.00;98775.16;4222384;27;20557;-45
2022/12/06 08:32:46;;;;;;;6.30;5.78;;;;;;;3.31;100.00;98776.78;4240345;27;20204;-45
2022/12/06 08:34:48;;;;;;;5.80;4.65;;;;;;;3.38;100.00;98783.91;4222100;27;20206;-44
2022/12/06 08:36:49;;;;;;;5.38;4.93;;;;;;;3.37;100.00;98789.50;4220943;27;20257;-44
2022/12/06 08:38:51;;;;;;;6.45;5.75;;;;;;;3.39;100.00;98793.69;4223697;27;20853;-45
2022/12/06 08:40:53;;;;;;;5.85;4.82;;;;;;;3.38;100.00;98789.31;4223509;27;20844;-45
2022/12/06 08:42:55;;;;;;;5.20;4.70;;;;;;;3.41;100.00;98794.31;4224411;27;20696;-45
2022/12/06 08:44:57;;;;;;;6.43;5.90;;;;;;;3.31;100.00;98799.25;4241378;27;20201;-44
2022/12/06 08:47:00;;;;;;;5.47;5.07;;;;;;;3.33;100.00;98802.59;4243850;27;20251;-45
2022/12/06 08:49:02;;;;;;;5.97;5.38;;;;;;;3.27;100.00;98794.44;4224827;27;20213;-45
2022/12/06 08:51:04;;;;;;;6.60;6.00;;;;;;;3.36;100.00;98790.53;4209976;28;20304;-45
2022/12/06 08:53:06;;;;;;;7.25;5.75;;;;;;;3.39;100.00;98790.97;4211800;28;20810;-46
2022/12/06 08:55:08;;;;;;;6.85;6.13;;;;;;;3.33;100.00;98791.78;4203425;27;20594;-46
2022/12/06 08:57:10;;;;;;;6.00;5.50;;;;;;;3.43;100.00;98786.84;4241940;27;20215;-46
2022/12/06 08:59:15;;;;;;;6.32;5.72;;;;;;;3.32;100.00;98790.09;4205675;28;20234;-45
2022/12/06 09:01:19;;;;;;;5.45;4.95;;;;;;;3.30;100.00;98796.72;4222563;27;20293;-46
2022/12/06 09:03:21;;;;;;;5.70;5.15;;;;;;;3.33;100.00;98797.19;4240552;27;20212;-45
2022/12/06 09:05:23;;;;;;;5.63;5.13;;;;;;;3.31;100.00;98799.25;4238066;27;20213;-45
2022/12/06 09:07:25;;;;;;;5.53;5.03;;;;;;;3.44;100.00;98796.63;4227895;27;20209;-46
2022/12/06 09:09:27;;;;;;;5.30;4.72;;;;;;;3.42;100.00;98801.41;4208358;28;20210;-45
2022/12/06 09:11:29;;;;;;;5.72;5.15;;;;;;;3.31;100.00;98798.41;4225328;27;20227;-44
2022/12/06 09:13:32;;;;;;;5.38;4.88;;;;;;;3.34;100.00;98803.44;4237194;27;20204;-45
2022/12/06 09:15:33;;;;;;;5.65;5.25;;;;;;;3.38;100.00;98808.25;4207444;28;20230;-45
2022/12/06 09:17:35;;;;;;;6.90;6.30;;;;;;;3.39;100.00;98801.81;4224888;27;20252;-46
2022/12/06 09:19:37;;;;;;;5.82;5.22;;;;;;;3.43;100.00;98808.50;4238973;27;20685;-44
2022/12/06 09:21:41;;;;;;;7.50;5.05;;;;;;;3.34;100.00;98809.66;4238159;27;20588;-45
2022/12/06 09:23:43;;;;;;;6.43;5.82;;;;;;;3.27;100.00;98806.06;4224263;27;20664;-45
2022/12/06 09:25:45;;;;;;;5.50;4.75;;;;;;;3.47;100.00;98798.13;4239044;27;20256;-44
2022/12/06 09:27:49;;;;;;;6.90;5.40;;;;;;;3.43;100.00;98805.78;4219355;27;20206;-45
2022/12/06 09:29:51;;;;;;;5.35;4.85;;;;;;;3.47;100.00;98804.34;4227724;27;20205;-45
2022/12/06 09:31:53;;;;;;;6.80;5.85;;;;;;;3.60;100.00;98804.44;4225546;27;20263;-45
2022/12/06 09:33:55;;;;;;;10.68;9.50;;;;;;;3.61;100.00;98800.69;4236611;27;20193;-45
2022/12/06 09:35:59;;;;;;;9.63;8.80;;;;;;;3.63;100.00;98809.44;4223380;27;20224;-44
2022/12/06 09:38:02;;;;;;;9.27;8.35;;;;;;;3.64;100.00;98804.88;4221963;27;20240;-44
2022/12/06 09:40:11;;;;;;;17.75;9.77;;;;;;;3.62;100.00;98812.34;4226349;28;20568;-45
2022/12/06 09:42:22;;;;;;;9.48;8.18;;;;;;;3.64;100.00;98818.38;4224736;27;20236;-45
2022/12/06 09:44:41;;;;;;;12.07;8.20;;;;;;;3.66;100.00;98824.47;4226150;27;20205;-45
2022/12/06 09:47:08;;;;;;;8.02;7.22;;;;;;;3.63;100.00;98820.28;4226338;27;20252;-44
2022/12/06 09:49:49;;;;;;;8.00;7.28;;;;;;;3.68;100.00;98825.91;4218430;27;20230;-47
2022/12/06 09:52:07;;;;;;;5.80;5.30;;;;;;;3.65;100.00;98817.34;4186829;28;20209;-45
2022/12/06 09:54:41;;;;;;;7.38;6.68;;;;;;;3.64;100.00;98821.94;4207511;28;20208;-46
2022/12/06 09:56:53;;;;;;;6.68;6.13;;;;;;;3.78;100.00;98820.13;4232885;27;20304;-47
2022/12/06 09:59:11;;;;;;;8.43;7.60;;;;;;;3.76;100.00;98820.34;4234771;27;20691;-44
2022/12/06 10:01:44;;;;;;;7.20;6.30;;;;;;;3.85;100.00;98819.16;4234420;27;20313;-48
2022/12/06 10:04:20;;;;;;;7.03;6.40;;;;;;;3.73;100.00;98817.22;4236494;27;20229;-47
2022/12/06 10:06:39;;;;;;;7.05;6.45;;;;;;;3.86;100.00;98818.09;4232863;27;20223;-47
2022/12/06 10:09:09;;;;;;;8.00;6.30;;;;;;;3.78;100.00;98817.44;4222473;28;20208;-47
2022/12/06 10:11:15;;;;;;;6.47;5.40;;;;;;;3.80;100.00;98816.19;4220431;28;20639;-47
2022/12/06 10:13:45;;;;;;;6.30;5.70;;;;;;;3.89;100.00;98814.16;4202441;28;20219;-46
2022/12/06 10:16:08;;;;;;;5.03;4.63;;;;;;;3.98;100.00;98807.53;4219645;28;20937;-46
2022/12/06 10:18:16;;;;;;;5.78;5.28;;;;;;;3.96;100.00;98810.47;4236518;27;20205;-46
2022/12/06 10:20:32;;;;;;;5.25;4.85;;;;;;;3.90;100.00;98808.56;4237724;27;20270;-48
2022/12/06 10:22:49;;;;;;;6.03;5.55;;;;;;;3.85;100.00;98808.31;4222551;27;20327;-46
2022/12/06 10:25:19;;;;;;;5.22;4.80;;;;;;;3.87;100.00;98800.00;4236969;27;20201;-46